Time;durP1;ratioP1;P1;durP2;ratioP2;P2;SDS_P1;SDS_P2;PMS_P1;PMS_P2;Temp;Humidity;BMP_temperature;BMP_pressure;BME280_temperature;BME280_humidity;BME280_pressure;Samples;Min_cycle;Max_cycle;Signal;HPM_P1;HPM_P2
2022/11/29 00:00:27;;;;;;;15.60;9.40;;;;;;;5.65;88.10;100682.12;105573;1290;58965;-78
2022/11/29 00:02:54;;;;;;;14.70;10.00;;;;;;;5.63;88.07;100682.68;105471;1293;58890;-78
2022/11/29 00:05:21;;;;;;;15.60;9.80;;;;;;;5.62;88.27;100687.65;105607;1294;74722;-78
2022/11/29 00:07:48;;;;;;;15.50;9.80;;;;;;;5.63;88.35;100685.02;105360;1298;59429;-78
2022/11/29 00:10:14;;;;;;;14.00;9.60;;;;;;;5.62;88.28;100684.86;105503;1287;73675;-77
2022/11/29 00:12:41;;;;;;;14.60;9.90;;;;;;;5.63;88.36;100684.29;105592;1285;60587;-78
2022/11/29 00:15:07;;;;;;;15.20;10.20;;;;;;;5.63;88.65;100684.95;105445;1295;59501;-78
2022/11/29 00:17:34;;;;;;;17.20;10.60;;;;;;;5.64;88.23;100684.04;105489;1287;59591;-78
2022/11/29 00:20:01;;;;;;;16.20;10.50;;;;;;;5.64;88.56;100680.81;105556;1294;68546;-78
2022/11/29 00:22:28;;;;;;;13.80;10.00;;;;;;;5.66;88.33;100682.78;105451;1297;59664;-77
2022/11/29 00:24:54;;;;;;;14.50;10.00;;;;;;;5.65;88.36;100682.81;105547;1294;59803;-78
2022/11/29 00:27:21;;;;;;;15.10;10.40;;;;;;;5.67;88.37;100687.90;105546;1292;59602;-79
2022/11/29 00:29:47;;;;;;;17.80;10.10;;;;;;;5.68;88.52;100693.41;105434;1287;58964;-78
2022/11/29 00:32:13;;;;;;;15.80;10.50;;;;;;;5.70;88.39;100693.26;105505;1287;59131;-79
2022/11/29 00:34:40;;;;;;;14.80;10.20;;;;;;;5.72;88.53;100694.46;105428;1287;59067;-78
2022/11/29 00:37:06;;;;;;;14.20;10.10;;;;;;;5.73;88.48;100691.01;105593;1287;58965;-77
2022/11/29 00:39:33;;;;;;;14.00;10.10;;;;;;;5.77;88.50;100690.59;105496;1294;59555;-78
2022/11/29 00:41:59;;;;;;;13.60;10.00;;;;;;;5.79;88.49;100692.13;105544;1294;59177;-78
2022/11/29 00:44:26;;;;;;;14.20;9.70;;;;;;;5.82;88.36;100689.04;105412;1297;59432;-78
2022/11/29 00:46:52;;;;;;;14.80;9.80;;;;;;;5.81;88.23;100685.40;105569;1287;59980;-78
2022/11/29 00:49:19;;;;;;;14.00;9.30;;;;;;;5.80;88.02;100686.57;105560;1286;59234;-78
2022/11/29 00:51:46;;;;;;;13.30;9.30;;;;;;;5.79;87.96;100690.16;105589;1292;58982;-78
2022/11/29 00:54:12;;;;;;;14.70;9.90;;;;;;;5.80;88.00;100685.36;105406;1295;75173;-78
2022/11/29 00:56:39;;;;;;;14.30;10.00;;;;;;;5.81;88.12;100683.99;105601;1293;70944;-78
2022/11/29 00:59:05;;;;;;;17.90;10.70;;;;;;;5.84;88.25;100678.11;105429;1295;59158;-78
2022/11/29 01:01:32;;;;;;;16.20;10.00;;;;;;;5.87;88.03;100679.38;105522;1287;59914;-78
2022/11/29 01:04:00;;;;;;;14.30;9.80;;;;;;;5.89;88.17;100682.04;105536;1291;59199;-78
2022/11/29 01:06:27;;;;;;;15.40;9.90;;;;;;;5.90;88.03;100678.79;105550;1290;72900;-78
2022/11/29 01:08:53;;;;;;;16.50;10.90;;;;;;;5.89;87.83;100679.88;105501;1294;69625;-78
2022/11/29 01:11:23;;;;;;;16.30;11.20;;;;;;;5.88;87.74;100681.95;105484;1286;58981;-78
2022/11/29 01:13:52;;;;;;;13.30;9.80;;;;;;;5.88;87.85;100685.23;105445;1288;60953;-78
2022/11/29 01:16:18;;;;;;;14.70;9.60;;;;;;;5.88;87.81;100688.23;105513;1290;60541;-78
2022/11/29 01:18:45;;;;;;;14.20;9.20;;;;;;;5.88;87.68;100690.19;105572;1293;73452;-78
2022/11/29 01:21:15;;;;;;;13.60;9.40;;;;;;;5.88;87.64;100692.48;105418;1291;58930;-78
2022/11/29 01:23:43;;;;;;;13.90;9.60;;;;;;;5.88;87.75;100692.84;105467;1294;71800;-78
2022/11/29 01:26:19;;;;;;;17.80;9.90;;;;;;;5.87;87.45;100697.86;105450;1293;59494;-78
2022/11/29 01:28:48;;;;;;;14.20;9.70;;;;;;;5.87;87.55;100696.59;105445;1294;60319;-78
2022/11/29 01:31:21;;;;;;;14.90;10.00;;;;;;;5.88;87.69;100703.48;105562;1294;75050;-78
2022/11/29 01:33:51;;;;;;;17.40;10.30;;;;;;;5.89;87.30;100703.45;105505;1286;69689;-78
2022/11/29 01:36:18;;;;;;;15.20;9.90;;;;;;;5.88;87.46;100700.73;105417;1287;72585;-78
2022/11/29 01:38:44;;;;;;;17.80;10.20;;;;;;;5.87;87.42;100699.09;105427;1288;59250;-78
2022/11/29 01:41:18;;;;;;;15.60;9.60;;;;;;;5.86;87.24;100701.11;105615;1294;59231;-78
2022/11/29 01:43:57;;;;;;;16.30;9.90;;;;;;;5.83;87.22;100705.08;105586;1295;74907;-78
2022/11/29 01:46:24;;;;;;;17.80;10.10;;;;;;;5.82;87.38;100709.18;105472;1287;69148;-78
2022/11/29 01:48:55;;;;;;;13.20;9.80;;;;;;;5.82;87.52;100708.16;105415;1290;72796;-78
2022/11/29 01:51:23;;;;;;;15.40;10.00;;;;;;;5.81;87.58;100712.14;105561;1287;59694;-78
2022/11/29 01:53:49;;;;;;;14.80;9.80;;;;;;;5.81;87.60;100712.48;105488;1294;59220;-78
2022/11/29 01:56:16;;;;;;;14.40;9.90;;;;;;;5.81;87.55;100712.65;105604;1290;73601;-78
2022/11/29 01:58:44;;;;;;;14.40;9.30;;;;;;;5.80;87.62;100708.48;105559;1292;70335;-78
2022/11/29 02:01:10;;;;;;;15.40;9.30;;;;;;;5.79;87.62;100703.91;105541;1294;71419;-78
2022/11/29 02:03:37;;;;;;;15.20;9.80;;;;;;;5.79;87.68;100705.98;105565;1293;59883;-78
2022/11/29 02:06:05;;;;;;;15.00;10.30;;;;;;;5.79;87.67;100707.04;105590;1285;59823;-78
2022/11/29 02:08:38;;;;;;;14.40;9.50;;;;;;;5.79;87.61;100703.71;105503;1287;75385;-78
2022/11/29 02:11:19;;;;;;;15.60;10.10;;;;;;;5.76;87.61;100704.14;105590;1291;71149;-78
2022/11/29 02:13:55;;;;;;;16.00;10.20;;;;;;;5.75;87.65;100708.66;105559;1285;72630;-78
2022/11/29 02:16:37;;;;;;;14.20;9.40;;;;;;;5.73;87.53;100706.68;105573;1287;59789;-78
2022/11/29 02:19:22;;;;;;;14.90;10.00;;;;;;;5.69;87.46;100702.77;105422;1288;59031;-78
2022/11/29 02:22:09;;;;;;;13.60;9.30;;;;;;;5.65;87.35;100701.98;105557;1285;73853;-78
2022/11/29 02:25:12;;;;;;;14.20;10.20;;;;;;;5.61;87.45;100706.04;105560;1291;69536;-78
2022/11/29 02:28:10;;;;;;;13.90;9.90;;;;;;;5.58;87.51;100704.23;105565;1294;71632;-78
2022/11/29 02:31:04;;;;;;;14.20;9.50;;;;;;;5.52;87.46;100703.23;105533;1294;59653;-78
2022/11/29 02:34:05;;;;;;;16.20;10.20;;;;;;;5.48;87.68;100709.71;105587;1291;58843;-78
2022/11/29 02:36:56;;;;;;;15.20;9.90;;;;;;;5.45;87.75;100710.16;105523;1291;73171;-78
2022/11/29 02:39:28;;;;;;;16.30;10.30;;;;;;;5.44;87.90;100709.85;105580;1287;70879;-78
2022/11/29 02:42:07;;;;;;;14.70;9.70;;;;;;;5.46;88.16;100713.04;105569;1294;72618;-78
2022/11/29 02:44:57;;;;;;;13.80;9.70;;;;;;;5.46;87.85;100715.50;105582;1287;59926;-78
2022/11/29 02:47:39;;;;;;;13.70;10.00;;;;;;;5.44;87.73;100713.44;105411;1295;59391;-78
2022/11/29 02:50:06;;;;;;;16.50;9.80;;;;;;;5.41;87.73;100718.80;105559;1290;73729;-78
2022/11/29 02:52:47;;;;;;;14.80;10.30;;;;;;;5.40;87.88;100716.77;105483;1294;70860;-78
2022/11/29 02:55:28;;;;;;;13.80;10.00;;;;;;;5.41;87.91;100720.30;105570;1287;71116;-77
2022/11/29 02:58:24;;;;;;;13.90;9.50;;;;;;;5.43;88.22;100721.72;105556;1294;61831;-78
2022/11/29 03:01:24;;;;;;;13.70;9.50;;;;;;;5.45;88.03;100722.11;105599;1287;59003;-78
2022/11/29 03:04:15;;;;;;;14.30;9.60;;;;;;;5.42;87.72;100728.30;105495;1291;73647;-78
2022/11/29 03:07:00;;;;;;;15.00;9.90;;;;;;;5.43;88.15;100734.34;105586;1290;69207;-78
2022/11/29 03:10:20;;;;;;;15.10;10.30;;;;;;;5.46;88.28;100731.95;105571;1295;72278;-78
2022/11/29 03:12:50;;;;;;;14.60;10.40;;;;;;;5.50;88.43;100730.77;105232;1291;59832;-78
2022/11/29 03:15:40;;;;;;;13.40;9.40;;;;;;;5.53;88.09;100736.43;105239;1290;59593;-78
2022/11/29 03:18:38;;;;;;;14.20;9.40;;;;;;;5.57;88.12;100739.61;105411;1286;73455;-78
2022/11/29 03:21:24;;;;;;;15.20;9.80;;;;;;;5.56;87.84;100741.39;105589;1295;70380;-78
2022/11/29 03:23:56;;;;;;;17.60;10.80;;;;;;;5.58;87.89;100739.33;105587;1295;71160;-78
2022/11/29 03:26:34;;;;;;;16.00;10.60;;;;;;;5.59;87.92;100741.17;105390;1295;61034;-78
2022/11/29 03:29:27;;;;;;;14.70;9.90;;;;;;;5.57;87.52;100740.61;105423;1294;58948;-78
2022/11/29 03:32:22;;;;;;;13.60;10.00;;;;;;;5.53;87.72;100741.00;105563;1294;73446;-78
2022/11/29 03:35:09;;;;;;;15.20;9.60;;;;;;;5.50;87.73;100738.27;105594;1285;69583;-78
2022/11/29 03:38:00;;;;;;;13.10;9.20;;;;;;;5.49;87.88;100741.39;105479;1292;72096;-78
2022/11/29 03:40:51;;;;;;;15.20;9.20;;;;;;;5.45;87.75;100745.05;105561;1291;61173;-78
2022/11/29 03:43:35;;;;;;;13.90;9.20;;;;;;;5.41;87.75;100752.42;105498;1295;58794;-78
2022/11/29 03:46:09;;;;;;;13.60;9.80;;;;;;;5.37;87.79;100754.02;105465;1293;74376;-78
2022/11/29 03:48:50;;;;;;;13.90;9.80;;;;;;;5.34;87.90;100757.31;105495;1294;71063;-78
2022/11/29 03:51:45;;;;;;;16.00;10.20;;;;;;;5.31;88.18;100757.52;105564;1294;72305;-78
2022/11/29 03:54:18;;;;;;;15.50;10.10;;;;;;;5.31;88.31;100765.42;105597;1287;61113;-78
2022/11/29 03:56:45;;;;;;;16.10;10.60;;;;;;;5.31;88.30;100765.58;105418;1295;59301;-78
2022/11/29 03:59:39;;;;;;;15.40;10.40;;;;;;;5.31;88.38;100767.86;105495;1294;74988;-78
2022/11/29 04:02:28;;;;;;;17.70;11.10;;;;;;;5.32;88.48;100771.33;105468;1294;70851;-78
2022/11/29 04:05:16;;;;;;;15.30;10.70;;;;;;;5.32;88.59;100771.98;105590;1290;72548;-78
2022/11/29 04:08:20;;;;;;;18.60;10.90;;;;;;;5.34;88.70;100777.47;105605;1286;59626;-78
2022/11/29 04:11:04;;;;;;;17.00;11.10;;;;;;;5.35;88.51;100777.39;105497;1292;60530;-78
2022/11/29 04:14:01;;;;;;;15.50;10.60;;;;;;;5.33;88.31;100778.24;105573;1287;73583;-78
2022/11/29 04:17:03;;;;;;;17.20;10.50;;;;;;;5.32;88.48;100782.20;105521;1287;71841;-78
2022/11/29 04:19:54;;;;;;;16.30;10.70;;;;;;;5.32;88.63;100782.70;105558;1291;73558;-78
2022/11/29 04:22:41;;;;;;;15.10;10.20;;;;;;;5.33;88.61;100782.99;105486;1294;59956;-78
2022/11/29 04:25:47;;;;;;;17.90;10.80;;;;;;;5.29;88.39;100787.86;105450;1294;59170;-78
2022/11/29 04:29:07;;;;;;;16.40;10.80;;;;;;;5.24;88.53;100787.23;105573;1293;74438;-78
2022/11/29 04:32:10;;;;;;;18.00;11.40;;;;;;;5.21;88.69;100790.14;105270;1304;68875;-78
2022/11/29 04:35:01;;;;;;;17.40;11.80;;;;;;;5.18;88.81;100789.36;104794;1298;72399;-78
2022/11/29 04:37:53;;;;;;;16.40;11.50;;;;;;;5.17;88.94;100788.13;105552;1284;59770;-78
2022/11/29 04:40:26;;;;;;;15.60;10.80;;;;;;;5.15;88.86;100789.14;105502;1280;59662;-77
2022/11/29 04:42:59;;;;;;;18.40;12.10;;;;;;;5.14;89.15;100792.08;105506;1285;74475;-77
2022/11/29 04:45:59;;;;;;;16.20;11.40;;;;;;;5.14;89.14;100797.96;105576;1294;69546;-77
2022/11/29 04:49:14;;;;;;;17.90;12.20;;;;;;;5.15;89.22;100800.23;105534;1291;71751;-77
2022/11/29 04:52:02;;;;;;;20.50;13.50;;;;;;;5.12;89.15;100802.20;105397;1291;59690;-78
2022/11/29 04:54:46;;;;;;;19.20;11.90;;;;;;;5.13;89.35;100812.11;105563;1294;58983;-78
2022/11/29 04:57:36;;;;;;;16.60;11.90;;;;;;;5.15;89.44;100812.45;105476;1295;73755;-78
2022/11/29 05:00:09;;;;;;;16.50;11.70;;;;;;;5.19;89.36;100812.80;105464;1293;70715;-78
2022/11/29 05:03:05;;;;;;;17.20;11.20;;;;;;;5.21;89.49;100816.30;105482;1294;72686;-78
2022/11/29 05:05:57;;;;;;;17.50;11.60;;;;;;;5.23;89.42;100814.56;105587;1287;61350;-78
2022/11/29 05:08:44;;;;;;;17.50;11.30;;;;;;;5.24;89.29;100820.46;105594;1293;58988;-78
2022/11/29 05:11:29;;;;;;;16.40;11.30;;;;;;;5.25;89.49;100822.23;105492;1294;74100;-78
2022/11/29 05:14:27;;;;;;;16.80;11.40;;;;;;;5.28;89.60;100823.39;105555;1291;70020;-78
2022/11/29 05:17:11;;;;;;;15.80;11.00;;;;;;;5.30;89.48;100826.20;105602;1294;71094;-78
2022/11/29 05:20:08;;;;;;;17.20;11.10;;;;;;;5.30;89.33;100826.36;105440;1292;61076;-78
2022/11/29 05:23:12;;;;;;;20.70;12.70;;;;;;;5.30;89.31;100832.87;105568;1294;59070;-78
2022/11/29 05:26:01;;;;;;;16.70;11.70;;;;;;;5.30;89.33;100833.89;105597;1291;74125;-78
2022/11/29 05:28:37;;;;;;;17.00;11.50;;;;;;;5.32;89.37;100838.63;105634;1278;70953;-79
2022/11/29 05:31:31;;;;;;;18.60;11.70;;;;;;;5.33;89.44;100844.17;105374;1303;72678;-78
2022/11/29 05:34:16;;;;;;;18.30;11.60;;;;;;;5.35;89.46;100846.77;105581;1286;61872;-79
2022/11/29 05:36:56;;;;;;;17.00;11.70;;;;;;;5.38;89.64;100851.26;105505;1278;59326;-78
2022/11/29 05:39:39;;;;;;;17.30;12.10;;;;;;;5.41;89.43;100859.23;105639;1294;73754;-78
2022/11/29 05:42:21;;;;;;;19.00;12.20;;;;;;;5.45;89.52;100862.10;105564;1293;70053;-78
2022/11/29 05:45:23;;;;;;;19.80;12.70;;;;;;;5.46;89.38;100861.45;105550;1293;72706;-78
2022/11/29 05:48:06;;;;;;;21.20;13.70;;;;;;;5.47;89.42;100867.46;105476;1294;61108;-78
2022/11/29 05:50:38;;;;;;;19.50;12.50;;;;;;;5.49;89.42;100866.77;105566;1285;60503;-78
2022/11/29 05:53:30;;;;;;;18.30;12.10;;;;;;;5.50;89.36;100868.23;105470;1289;73461;-78
2022/11/29 05:56:39;;;;;;;18.00;12.40;;;;;;;5.54;89.31;100870.94;105689;1285;69476;-78
2022/11/29 05:59:12;;;;;;;17.20;11.50;;;;;;;5.56;89.45;100873.67;105361;1296;73730;-78
2022/11/29 06:01:47;;;;;;;17.40;11.40;;;;;;;5.57;89.06;100877.97;105495;1288;59488;-78
2022/11/29 06:04:44;;;;;;;17.20;11.70;;;;;;;5.60;89.27;100883.53;105636;1290;59207;-78
2022/11/29 06:07:19;;;;;;;18.40;12.00;;;;;;;5.62;89.11;100887.67;105579;1294;73398;-78
2022/11/29 06:09:59;;;;;;;17.10;11.60;;;;;;;5.65;89.15;100888.15;105508;1288;72134;-78
2022/11/29 06:12:30;;;;;;;19.10;11.90;;;;;;;5.67;89.07;100888.09;105511;1294;71181;-78
2022/11/29 06:15:23;;;;;;;17.90;11.90;;;;;;;5.68;88.70;100889.94;105638;1293;59469;-78
2022/11/29 06:18:23;;;;;;;17.00;11.80;;;;;;;5.69;88.74;100886.48;105632;1287;58784;-78
2022/11/29 06:21:11;;;;;;;16.60;11.80;;;;;;;5.70;88.60;100891.73;105573;1294;74472;-78
2022/11/29 06:24:05;;;;;;;18.50;11.90;;;;;;;5.69;88.45;100892.48;105587;1293;70113;-78
2022/11/29 06:26:59;;;;;;;18.70;11.90;;;;;;;5.71;88.69;100894.77;105620;1287;71101;-78
2022/11/29 06:30:06;;;;;;;18.50;12.50;;;;;;;5.70;88.43;100890.80;105592;1294;61723;-78
2022/11/29 06:32:51;;;;;;;17.40;12.30;;;;;;;5.70;88.44;100897.34;105243;1295;59899;-78
2022/11/29 06:35:26;;;;;;;19.90;13.00;;;;;;;5.70;88.41;100902.61;105686;1286;73159;-78
2022/11/29 06:37:57;;;;;;;15.90;11.40;;;;;;;5.69;88.43;100903.88;105672;1291;69891;-77
2022/11/29 06:40:24;;;;;;;17.80;12.30;;;;;;;5.68;88.34;100903.44;105518;1296;72463;-77
2022/11/29 06:42:50;;;;;;;18.30;11.60;;;;;;;5.68;88.41;100903.80;105578;1295;59628;-77
2022/11/29 06:45:17;;;;;;;17.70;12.60;;;;;;;5.69;88.38;100904.63;105431;1295;60463;-78
2022/11/29 06:48:02;;;;;;;18.50;12.00;;;;;;;5.69;88.40;100908.25;105498;1294;74825;-77
2022/11/29 06:50:57;;;;;;;19.00;12.70;;;;;;;5.69;88.43;100907.58;105484;1295;70008;-74
2022/11/29 06:53:44;;;;;;;18.40;12.40;;;;;;;5.70;88.59;100910.48;105561;1287;72111;-74
2022/11/29 06:56:32;;;;;;;16.60;12.20;;;;;;;5.71;88.48;100908.77;105536;1293;61000;-74
2022/11/29 06:59:12;;;;;;;17.40;12.10;;;;;;;5.74;88.44;100913.98;105099;1286;59492;-74
2022/11/29 07:01:58;;;;;;;19.30;11.80;;;;;;;5.78;88.54;100917.57;105568;1293;74837;-74
2022/11/29 07:04:44;;;;;;;17.10;12.00;;;;;;;5.82;88.46;100922.12;105620;1294;71005;-74
2022/11/29 07:07:16;;;;;;;18.30;11.50;;;;;;;5.84;88.35;100920.87;105578;1290;72733;-74
2022/11/29 07:09:48;;;;;;;16.70;12.10;;;;;;;5.86;88.00;100929.27;105550;1291;59813;-74
2022/11/29 07:12:15;;;;;;;17.30;12.20;;;;;;;5.87;87.91;100929.88;105571;1294;60240;-74
2022/11/29 07:14:42;;;;;;;17.90;12.80;;;;;;;5.88;88.04;100933.23;105548;1295;74280;-74
2022/11/29 07:17:47;;;;;;;19.40;12.80;;;;;;;5.89;87.98;100935.09;105522;1289;69351;-73
2022/11/29 07:20:24;;;;;;;18.90;12.30;;;;;;;5.90;87.92;100938.74;105620;1291;72451;-74
2022/11/29 07:23:07;;;;;;;20.20;12.60;;;;;;;5.91;87.87;100936.54;105549;1294;59663;-74
2022/11/29 07:25:47;;;;;;;19.90;13.40;;;;;;;5.91;87.71;100939.66;105489;1293;59712;-74
2022/11/29 07:28:47;;;;;;;27.00;15.90;;;;;;;5.90;87.86;100943.23;105498;1294;74476;-74
2022/11/29 07:31:32;;;;;;;23.00;14.90;;;;;;;5.92;87.71;100942.55;105616;1294;69585;-73
2022/11/29 07:34:36;;;;;;;19.40;13.40;;;;;;;5.93;87.91;100944.40;105634;1287;71987;-74
2022/11/29 07:38:01;;;;;;;20.30;13.20;;;;;;;5.96;87.87;100950.48;105494;1294;59648;-74
2022/11/29 07:40:37;;;;;;;22.40;13.20;;;;;;;5.97;87.84;100957.41;105377;1290;60161;-74
2022/11/29 07:43:39;;;;;;;18.30;12.50;;;;;;;5.98;87.64;100956.85;105474;1294;75151;-73
2022/11/29 07:46:05;;;;;;;19.50;12.90;;;;;;;5.98;87.68;100954.36;105525;1293;71611;-73
2022/11/29 07:48:32;;;;;;;20.10;13.40;;;;;;;5.98;87.51;100957.16;105545;1293;59040;-73
2022/11/29 07:50:59;;;;;;;19.90;13.00;;;;;;;5.99;87.79;100962.50;105578;1293;59403;-74
2022/11/29 07:53:26;;;;;;;21.60;13.00;;;;;;;6.01;87.75;100960.95;105691;1295;58903;-74
2022/11/29 07:55:52;;;;;;;20.10;13.50;;;;;;;6.05;87.68;100967.94;105574;1295;73125;-74
2022/11/29 07:58:19;;;;;;;22.00;13.80;;;;;;;6.08;87.82;100966.64;105601;1287;68714;-74
2022/11/29 08:00:46;;;;;;;20.70;14.50;;;;;;;6.11;87.71;100970.71;105572;1295;71641;-73
2022/11/29 08:03:13;;;;;;;20.50;13.90;;;;;;;6.14;87.54;100973.48;105516;1284;59739;-74
2022/11/29 08:05:45;;;;;;;18.00;12.40;;;;;;;6.16;87.53;100973.95;105503;1287;59089;-74
2022/11/29 08:08:12;;;;;;;18.30;13.70;;;;;;;6.18;87.43;100982.27;105617;1293;73149;-74
2022/11/29 08:10:38;;;;;;;20.80;13.90;;;;;;;6.19;87.40;100987.73;105484;1295;71087;-73
2022/11/29 08:13:05;;;;;;;20.40;13.70;;;;;;;6.21;86.97;100986.70;105621;1294;59353;-74
2022/11/29 08:15:31;;;;;;;18.40;13.50;;;;;;;6.22;87.12;100989.55;105512;1300;59117;-74
2022/11/29 08:17:57;;;;;;;19.70;13.10;;;;;;;6.23;87.13;100992.70;105576;1296;58701;-73
2022/11/29 08:20:24;;;;;;;22.80;14.50;;;;;;;6.23;87.09;100987.60;105620;1291;59230;-73
2022/11/29 08:22:58;;;;;;;20.50;14.20;;;;;;;6.20;86.62;100995.19;105481;1294;59126;-74
2022/11/29 08:25:26;;;;;;;20.60;14.30;;;;;;;6.19;86.91;100993.95;105562;1287;72704;-73
2022/11/29 08:27:53;;;;;;;19.90;13.30;;;;;;;6.19;86.93;100997.11;105606;1293;61130;-74
2022/11/29 08:30:21;;;;;;;21.30;13.80;;;;;;;6.18;86.55;100998.04;105555;1290;59041;-74
2022/11/29 08:32:49;;;;;;;20.50;14.60;;;;;;;6.14;86.67;100998.34;105533;1296;74763;-73
2022/11/29 08:35:18;;;;;;;21.50;14.50;;;;;;;6.16;86.98;100998.10;105588;1294;69638;-73
2022/11/29 08:37:45;;;;;;;21.90;14.00;;;;;;;6.18;87.01;101000.29;105487;1298;72388;-74
2022/11/29 08:40:12;;;;;;;20.10;14.60;;;;;;;6.19;86.81;101000.40;105553;1295;59040;-74
2022/11/29 08:42:39;;;;;;;22.60;14.70;;;;;;;6.20;86.81;101003.09;105492;1290;59371;-74
2022/11/29 08:45:06;;;;;;;21.50;15.10;;;;;;;6.23;86.94;101005.55;105544;1294;59927;-73
2022/11/29 08:47:35;;;;;;;21.60;14.10;;;;;;;6.24;86.71;101007.63;105532;1288;71382;-73
2022/11/29 08:50:06;;;;;;;22.80;14.50;;;;;;;6.27;86.65;101008.52;105540;1290;72581;-73
2022/11/29 08:55:25;;;;;;;20.50;14.20;;;;;;;6.28;86.52;101018.41;105529;1295;60362;-74
2022/11/29 08:57:53;;;;;;;22.40;15.60;;;;;;;6.26;86.28;101017.38;105494;1292;73431;-74
2022/11/29 09:00:20;;;;;;;21.50;15.10;;;;;;;6.25;86.19;101020.78;105542;1293;70949;-74
2022/11/29 09:02:47;;;;;;;21.10;14.60;;;;;;;6.25;86.21;101021.27;105491;1296;59242;-74
2022/11/29 09:05:14;;;;;;;23.40;15.70;;;;;;;6.26;86.19;101022.45;105555;1280;60312;-74
2022/11/29 09:07:41;;;;;;;23.00;15.80;;;;;;;6.26;86.07;101023.84;105551;1294;59790;-73
2022/11/29 09:10:09;;;;;;;23.30;16.10;;;;;;;6.26;86.10;101027.17;105487;1297;73500;-73
2022/11/29 09:12:36;;;;;;;25.00;16.80;;;;;;;6.26;85.69;101026.10;105525;1293;69571;-74
2022/11/29 09:15:08;;;;;;;23.00;16.70;;;;;;;6.28;86.11;101027.72;105498;1293;72218;-74
2022/11/29 09:17:34;;;;;;;25.30;16.20;;;;;;;6.29;86.09;101025.83;105525;1287;60047;-74
2022/11/29 09:20:02;;;;;;;22.70;15.30;;;;;;;6.31;86.17;101031.13;105641;1296;59133;-74
2022/11/29 09:22:28;;;;;;;24.10;15.70;;;;;;;6.34;86.30;101033.67;105576;1290;74777;-74
2022/11/29 09:24:55;;;;;;;22.70;15.30;;;;;;;6.36;85.98;101034.35;105568;1294;69789;-73
2022/11/29 09:27:21;;;;;;;22.60;15.40;;;;;;;6.35;85.66;101036.70;105607;1294;58879;-74
2022/11/29 09:29:48;;;;;;;25.00;16.20;;;;;;;6.36;85.80;101034.85;105543;1290;58958;-74
2022/11/29 09:32:14;;;;;;;23.70;15.60;;;;;;;6.39;85.89;101038.51;105580;1294;59351;-74
2022/11/29 09:34:41;;;;;;;23.30;15.60;;;;;;;6.42;86.22;101039.75;105607;1290;59323;-74
2022/11/29 09:37:07;;;;;;;23.50;15.50;;;;;;;6.45;85.97;101038.48;105549;1291;70367;-76
2022/11/29 09:39:34;;;;;;;22.40;15.50;;;;;;;6.46;86.01;101044.16;105576;1291;59015;-74
2022/11/29 09:42:26;;;;;;;23.20;15.40;;;;;;;6.49;86.09;101045.11;105535;1293;59430;-73
2022/11/29 09:44:58;;;;;;;21.40;15.60;;;;;;;6.52;85.86;101049.73;105600;1293;59237;-74
2022/11/29 09:47:34;;;;;;;23.70;15.60;;;;;;;6.52;85.76;101053.42;105568;1294;73185;-74
2022/11/29 09:50:20;;;;;;;23.60;16.20;;;;;;;6.52;86.04;101058.52;105654;1284;69665;-73
2022/11/29 09:52:57;;;;;;;24.70;16.20;;;;;;;6.55;85.81;101063.24;105609;1283;71287;-74
2022/11/29 09:55:27;;;;;;;24.00;16.40;;;;;;;6.58;85.90;101063.63;105549;1293;59851;-73
2022/11/29 09:57:55;;;;;;;22.90;15.40;;;;;;;6.59;85.77;101064.42;105651;1290;59291;-74
2022/11/29 10:00:22;;;;;;;21.40;14.90;;;;;;;6.58;85.58;101060.52;105552;1295;73189;-73
2022/11/29 10:03:07;;;;;;;24.00;16.00;;;;;;;6.54;85.54;101058.54;105683;1285;71871;-74
2022/11/29 10:05:43;;;;;;;25.60;16.30;;;;;;;6.53;85.70;101058.95;105524;1295;72433;-74
2022/11/29 10:08:28;;;;;;;23.20;15.70;;;;;;;6.58;85.97;101055.95;105456;1295;60567;-73
2022/11/29 10:11:08;;;;;;;22.00;16.00;;;;;;;6.63;86.44;101056.72;105646;1295;60162;-73
2022/11/29 10:13:35;;;;;;;24.90;17.50;;;;;;;6.68;86.16;101059.02;105565;1298;74419;-74
2022/11/29 10:16:27;;;;;;;23.20;17.40;;;;;;;6.73;86.42;101062.91;105670;1284;69969;-74
2022/11/29 10:19:03;;;;;;;23.70;15.60;;;;;;;6.81;86.46;101062.95;105541;1293;72856;-74
2022/11/29 10:21:35;;;;;;;22.80;15.80;;;;;;;6.83;86.07;101060.77;105541;1294;60509;-73
2022/11/29 10:24:12;;;;;;;21.80;15.90;;;;;;;6.88;85.93;101060.29;105510;1295;62340;-73
2022/11/29 10:26:38;;;;;;;23.40;15.90;;;;;;;6.93;86.02;101060.03;105547;1294;73165;-73
2022/11/29 10:29:05;;;;;;;23.50;16.50;;;;;;;7.00;85.82;101061.17;105516;1294;59268;-73
2022/11/29 10:31:35;;;;;;;22.50;16.20;;;;;;;7.07;86.03;101060.39;105617;1295;58968;-73
2022/11/29 10:34:12;;;;;;;22.30;15.10;;;;;;;7.16;85.80;101057.89;105527;1293;62350;-73
2022/11/29 10:36:49;;;;;;;25.00;16.30;;;;;;;7.20;84.93;101062.11;105530;1293;60155;-73
2022/11/29 10:39:22;;;;;;;24.30;16.90;;;;;;;7.23;85.07;101061.33;105602;1288;73146;-73
2022/11/29 10:41:54;;;;;;;23.70;16.00;;;;;;;7.30;85.13;101061.56;105522;1294;70199;-74
2022/11/29 10:44:20;;;;;;;25.60;16.90;;;;;;;7.37;84.95;101064.93;105590;1289;71196;-74
2022/11/29 10:46:47;;;;;;;25.50;17.20;;;;;;;7.50;85.34;101067.02;105554;1288;60047;-74
2022/11/29 10:49:16;;;;;;;22.50;16.50;;;;;;;7.65;84.91;101066.02;105521;1294;59145;-74
2022/11/29 10:51:44;;;;;;;22.40;16.00;;;;;;;7.75;84.11;101068.02;105524;1295;73754;-74
2022/11/29 10:54:17;;;;;;;24.00;16.30;;;;;;;7.78;83.61;101067.91;105485;1295;69438;-74
2022/11/29 10:56:44;;;;;;;23.50;16.60;;;;;;;7.82;83.34;101070.16;105544;1294;71253;-74
2022/11/29 10:59:25;;;;;;;24.00;16.70;;;;;;;7.88;83.52;101069.74;105584;1298;59793;-74
2022/11/29 11:01:52;;;;;;;21.80;16.30;;;;;;;7.94;83.41;101069.04;105527;1295;59073;-74
2022/11/29 11:04:29;;;;;;;23.40;16.00;;;;;;;8.00;83.12;101069.01;105546;1295;75397;-74
2022/11/29 11:07:00;;;;;;;23.70;16.40;;;;;;;7.99;82.95;101067.98;105411;1293;71355;-74
2022/11/29 11:09:45;;;;;;;22.60;15.80;;;;;;;7.97;82.36;101072.98;105496;1293;72687;-75
2022/11/29 11:12:15;;;;;;;24.30;16.40;;;;;;;7.91;82.03;101072.48;105595;1292;59123;-74
2022/11/29 11:14:43;;;;;;;25.40;17.20;;;;;;;7.88;82.46;101071.55;105650;1295;60999;-74
2022/11/29 11:17:22;;;;;;;25.60;16.60;;;;;;;7.86;82.25;101072.09;105438;1297;75001;-74
2022/11/29 11:19:56;;;;;;;22.30;15.70;;;;;;;7.83;82.16;101072.55;105472;1298;70181;-74
2022/11/29 11:22:24;;;;;;;25.40;16.70;;;;;;;7.81;82.37;101070.48;105501;1287;72241;-74
2022/11/29 11:25:00;;;;;;;23.20;16.60;;;;;;;7.78;82.46;101069.98;105528;1289;61059;-74
2022/11/29 11:27:40;;;;;;;22.80;16.60;;;;;;;7.76;82.62;101067.52;105426;1293;60085;-73
2022/11/29 11:30:21;;;;;;;23.70;16.40;;;;;;;7.79;82.99;101065.19;105559;1295;73105;-73
2022/11/29 11:33:20;;;;;;;22.90;16.00;;;;;;;7.81;82.65;101066.61;105477;1291;69588;-74
2022/11/29 11:35:59;;;;;;;24.30;17.20;;;;;;;7.77;82.50;101065.69;105521;1296;73041;-73
2022/11/29 11:38:26;;;;;;;23.20;16.60;;;;;;;7.78;82.69;101072.85;105511;1294;61702;-73
2022/11/29 11:41:14;;;;;;;23.60;16.40;;;;;;;7.79;83.03;101071.38;105582;1295;59047;-73
2022/11/29 11:43:41;;;;;;;24.60;16.80;;;;;;;7.76;82.82;101076.14;105565;1294;74440;-73
2022/11/29 11:46:07;;;;;;;23.50;16.40;;;;;;;7.76;82.80;101077.26;105616;1288;69595;-73
2022/11/29 11:48:38;;;;;;;23.90;16.50;;;;;;;7.75;82.88;101079.23;105598;1295;73295;-73
2022/11/29 11:51:20;;;;;;;23.50;16.60;;;;;;;7.75;82.96;101082.36;105554;1290;59611;-73
2022/11/29 11:53:56;;;;;;;24.40;16.70;;;;;;;7.75;83.12;101083.95;105576;1294;59438;-73
2022/11/29 11:56:23;;;;;;;23.20;16.60;;;;;;;7.73;83.10;101082.57;105615;1290;73117;-73
2022/11/29 11:58:53;;;;;;;23.50;16.70;;;;;;;7.74;83.22;101088.19;105621;1287;69690;-74
2022/11/29 12:01:23;;;;;;;25.70;17.10;;;;;;;7.73;82.96;101089.43;105517;1286;72641;-74